createdAt,value
2023-06-09T00:00:47.317Z,100.00
2023-06-09T00:03:52.393Z,100.00
2023-06-09T00:06:56.226Z,100.00
2023-06-09T00:09:59.130Z,100.00
2023-06-09T00:13:01.844Z,100.00
2023-06-09T00:16:04.630Z,100.00
2023-06-09T00:19:10.463Z,100.00
2023-06-09T00:22:15.212Z,100.00
2023-06-09T00:25:21.587Z,100.00
2023-06-09T00:28:24.600Z,100.00
2023-06-09T00:31:27.351Z,100.00
2023-06-09T00:34:30.245Z,100.00
2023-06-09T00:37:33.055Z,100.00
2023-06-09T00:40:35.825Z,100.00
2023-06-09T00:43:38.520Z,100.00
2023-06-09T00:46:42.067Z,100.00
2023-06-09T00:49:45.218Z,100.00
2023-06-09T00:52:49.571Z,100.00
2023-06-09T00:55:53.075Z,100.00
2023-06-09T00:58:56.144Z,100.00
2023-06-09T01:01:58.736Z,100.00
2023-06-09T01:05:01.859Z,100.00
2023-06-09T01:08:19.527Z,100.00
2023-06-09T01:11:43.210Z,100.00
2023-06-09T01:14:48.392Z,100.00
2023-06-09T01:17:59.808Z,100.00
2023-06-09T01:21:34.009Z,100.00
2023-06-09T01:25:08.127Z,100.00
2023-06-09T01:28:12.973Z,100.00
2023-06-09T01:31:17.414Z,100.00
2023-06-09T01:34:20.134Z,100.00
2023-06-09T01:37:23.201Z,100.00
2023-06-09T01:40:26.798Z,100.00
2023-06-09T01:43:29.435Z,100.00
2023-06-09T01:46:33.244Z,100.00
2023-06-09T01:49:43.847Z,100.00
2023-06-09T01:53:05.590Z,100.00
2023-06-09T01:56:11.098Z,100.00
2023-06-09T01:59:26.038Z,100.00
2023-06-09T02:02:31.489Z,100.00
2023-06-09T02:05:34.816Z,100.00
2023-06-09T02:08:38.506Z,100.00
2023-06-09T02:11:41.568Z,100.00
2023-06-09T02:14:51.871Z,100.00
2023-06-09T02:17:55.488Z,100.00
2023-06-09T02:20:58.165Z,100.00
2023-06-09T02:24:01.006Z,100.00
2023-06-09T02:27:04.722Z,100.00
2023-06-09T02:30:08.886Z,100.00
2023-06-09T02:33:11.918Z,100.00
2023-06-09T02:36:15.183Z,100.00
2023-06-09T02:39:18.588Z,100.00
2023-06-09T02:42:21.323Z,100.00
2023-06-09T02:45:24.110Z,100.00
2023-06-09T02:48:26.733Z,100.00
2023-06-09T02:51:29.391Z,100.00
2023-06-09T02:54:32.431Z,100.00
2023-06-09T02:57:35.141Z,100.00
2023-06-09T03:00:38.302Z,100.00
2023-06-09T03:03:43.517Z,100.00
2023-06-09T03:06:50.124Z,100.00
2023-06-09T03:09:53.917Z,100.00
2023-06-09T03:12:57.876Z,100.00
2023-06-09T03:16:00.638Z,100.00
2023-06-09T03:19:04.230Z,100.00
2023-06-09T03:22:07.195Z,100.00
2023-06-09T03:25:13.617Z,100.00
2023-06-09T03:28:16.675Z,100.00
2023-06-09T03:31:19.963Z,100.00
2023-06-09T03:34:24.403Z,100.00
2023-06-09T03:37:29.471Z,100.00
2023-06-09T03:40:32.352Z,100.00
2023-06-09T03:43:35.999Z,100.00
2023-06-09T03:46:39.264Z,100.00
2023-06-09T03:49:42.131Z,100.00
2023-06-09T03:52:44.796Z,100.00
2023-06-09T03:55:47.659Z,100.00
2023-06-09T03:58:58.093Z,100.00
2023-06-09T04:02:01.623Z,100.00
2023-06-09T04:05:04.736Z,100.00
2023-06-09T04:08:09.305Z,100.00
2023-06-09T04:11:11.995Z,100.00
2023-06-09T04:14:15.271Z,100.00
2023-06-09T04:17:18.341Z,100.00
2023-06-09T04:20:23.954Z,100.00
2023-06-09T04:23:28.954Z,100.00
2023-06-09T04:26:34.036Z,100.00
2023-06-09T04:29:36.942Z,100.00
2023-06-09T04:32:40.320Z,100.00
2023-06-09T04:35:44.461Z,100.00
2023-06-09T04:38:53.243Z,100.00
2023-06-09T04:41:56.349Z,100.00
2023-06-09T04:45:03.528Z,100.00
2023-06-09T04:48:07.322Z,100.00
2023-06-09T04:51:11.698Z,100.00
2023-06-09T04:54:27.031Z,100.00
2023-06-09T04:57:32.304Z,100.00
2023-06-09T05:00:36.691Z,100.00
2023-06-09T05:03:42.085Z,100.00
2023-06-09T05:06:44.932Z,100.00
2023-06-09T05:09:48.764Z,100.00
2023-06-09T05:12:52.029Z,100.00
2023-06-09T05:15:58.949Z,100.00
2023-06-09T05:19:03.153Z,100.00
2023-06-09T05:22:06.417Z,100.00
2023-06-09T05:25:18.471Z,100.00
2023-06-09T05:28:23.421Z,100.00
2023-06-09T05:31:27.526Z,100.00
2023-06-09T05:34:32.395Z,100.00
2023-06-09T05:37:35.229Z,100.00
2023-06-09T05:40:38.324Z,100.00
2023-06-09T05:43:40.948Z,100.00
2023-06-09T05:46:46.334Z,100.00
2023-06-09T05:49:52.375Z,100.00
2023-06-09T05:52:56.622Z,100.00
2023-06-09T05:56:02.889Z,100.00
2023-06-09T05:59:05.872Z,100.00
2023-06-09T06:02:08.665Z,100.00
2023-06-09T06:05:11.899Z,100.00
2023-06-09T06:08:14.619Z,100.00
2023-06-09T06:11:20.279Z,100.00
2023-06-09T06:14:23.154Z,100.00
2023-06-09T06:17:25.811Z,100.00
2023-06-09T06:20:29.627Z,100.00
2023-06-09T06:23:33.138Z,100.00
2023-06-09T06:26:35.944Z,100.00
2023-06-09T06:29:40.352Z,100.00
2023-06-09T06:32:54.225Z,100.00
2023-06-09T06:35:57.761Z,100.00
2023-06-09T06:39:00.669Z,100.00
2023-06-09T06:42:03.680Z,100.00
2023-06-09T06:45:12.911Z,100.00
2023-06-09T06:48:15.806Z,100.00
2023-06-09T06:51:18.718Z,100.00
2023-06-09T06:54:22.250Z,100.00
2023-06-09T06:57:25.201Z,100.00
2023-06-09T07:00:29.403Z,100.00
2023-06-09T07:03:34.616Z,100.00
2023-06-09T07:06:44.188Z,100.00
2023-06-09T07:09:47.369Z,100.00
2023-06-09T07:12:50.463Z,100.00
2023-06-09T07:15:53.497Z,100.00
2023-06-09T07:18:56.469Z,100.00
2023-06-09T07:21:59.386Z,100.00
2023-06-09T07:25:02.298Z,100.00
2023-06-09T07:28:05.278Z,100.00
2023-06-09T07:31:08.382Z,100.00
2023-06-09T07:34:11.826Z,100.00
2023-06-09T07:37:14.804Z,100.00
2023-06-09T07:40:21.775Z,100.00
2023-06-09T07:43:25.025Z,100.00
2023-06-09T07:46:27.910Z,100.00
2023-06-09T07:49:30.840Z,100.00
2023-06-09T07:52:34.764Z,100.00
2023-06-09T07:55:37.614Z,100.00
2023-06-09T07:58:42.716Z,98.22
2023-06-09T08:01:46.931Z,97.29
2023-06-09T08:04:49.978Z,99.66
2023-06-09T08:07:52.902Z,96.54
2023-06-09T08:11:08.535Z,93.15
2023-06-09T08:14:14.424Z,87.38
2023-06-09T08:17:17.424Z,90.49
2023-06-09T08:20:20.541Z,92.89
2023-06-09T08:23:23.639Z,90.28
2023-06-09T08:26:28.993Z,84.12
2023-06-09T08:29:41.297Z,87.59
2023-06-09T08:32:46.383Z,85.30
2023-06-09T08:35:49.276Z,90.10
2023-06-09T08:38:52.253Z,86.99
2023-06-09T08:41:57.998Z,84.96
2023-06-09T08:45:09.381Z,84.49
2023-06-09T08:48:17.454Z,82.70
2023-06-09T08:51:22.910Z,79.43
2023-06-09T08:54:26.562Z,77.73
2023-06-09T08:57:29.585Z,84.25
2023-06-09T09:00:32.996Z,77.25
2023-06-09T09:03:36.019Z,79.30
2023-06-09T09:06:40.536Z,76.60
2023-06-09T09:09:43.362Z,80.90
2023-06-09T09:12:50.128Z,75.26
2023-06-09T09:15:54.144Z,80.07
2023-06-09T09:18:56.868Z,79.46
2023-06-09T09:22:06.867Z,72.28
2023-06-09T09:25:12.667Z,72.56
2023-06-09T09:28:15.505Z,69.25
2023-06-09T09:31:18.328Z,71.59
2023-06-09T09:34:21.255Z,67.51
2023-06-09T09:37:26.149Z,69.50
2023-06-09T09:40:31.316Z,66.76
2023-06-09T09:43:36.798Z,63.70
2023-06-09T09:46:40.888Z,67.25
2023-06-09T09:49:55.153Z,61.60
2023-06-09T09:52:57.947Z,61.05
2023-06-09T09:56:01.872Z,63.21
2023-06-09T09:59:05.007Z,59.76
2023-06-09T10:02:11.504Z,60.86
2023-06-09T10:05:16.313Z,64.00
2023-06-09T10:08:30.273Z,68.67
2023-06-09T10:11:33.396Z,70.44
2023-06-09T10:14:36.145Z,72.25
2023-06-09T10:17:39.322Z,74.46
2023-06-09T10:20:47.801Z,75.18
2023-06-09T10:23:54.364Z,75.92
2023-06-09T10:26:57.658Z,75.96
2023-06-09T10:30:04.936Z,78.71
2023-06-09T10:33:23.418Z,74.87
2023-06-09T10:36:26.210Z,74.43
2023-06-09T10:39:46.014Z,74.55
2023-06-09T10:43:26.722Z,75.45
2023-06-09T10:46:39.968Z,77.25
2023-06-09T10:49:44.350Z,73.00
2023-06-09T10:52:47.142Z,73.38
2023-06-09T10:56:12.380Z,69.46
2023-06-09T10:59:27.419Z,71.30
2023-06-09T11:02:31.699Z,71.76
2023-06-09T11:05:45.159Z,71.19
2023-06-09T11:09:10.928Z,73.13
2023-06-09T11:12:29.352Z,74.86
2023-06-09T11:16:02.685Z,74.26
2023-06-09T11:19:24.801Z,72.41
2023-06-09T11:22:29.116Z,73.00
2023-06-09T11:25:31.910Z,76.86
2023-06-09T11:28:41.424Z,77.84
2023-06-09T11:31:49.577Z,78.57
2023-06-09T11:34:59.825Z,79.99
2023-06-09T11:38:08.863Z,78.55
2023-06-09T11:41:15.777Z,75.37
2023-06-09T11:47:47.031Z,72.25
2023-06-09T11:50:57.825Z,70.05
2023-06-09T11:55:01.987Z,71.50
2023-06-09T11:58:19.041Z,68.43
2023-06-09T12:01:47.736Z,69.13
2023-06-09T12:05:13.530Z,70.86
2023-06-09T12:08:20.204Z,66.60
2023-06-09T12:11:30.653Z,65.09
2023-06-09T12:14:37.539Z,60.88
2023-06-09T12:17:41.718Z,59.48
2023-06-09T12:20:56.586Z,58.37
2023-06-09T12:24:02.790Z,57.52
2023-06-09T12:27:13.308Z,55.35
2023-06-09T12:30:45.466Z,58.31
2023-06-09T12:33:50.376Z,61.13
2023-06-09T12:36:54.051Z,56.90
2023-06-09T12:40:10.428Z,57.24
2023-06-09T12:47:00.980Z,57.88
2023-06-09T12:50:14.039Z,57.74
2023-06-09T12:53:17.473Z,59.53
2023-06-09T12:56:25.293Z,56.24
2023-06-09T12:59:28.054Z,53.68
2023-06-09T13:02:31.205Z,53.52
2023-06-09T13:05:34.232Z,57.42
2023-06-09T13:08:37.288Z,55.44
2023-06-09T13:11:40.245Z,49.64
2023-06-09T13:14:43.140Z,46.79
2023-06-09T13:17:46.455Z,43.10
2023-06-09T13:20:49.467Z,42.72
2023-06-09T13:23:52.327Z,43.78
2023-06-09T13:26:57.147Z,42.96
2023-06-09T13:30:01.529Z,37.85
2023-06-09T13:33:04.902Z,37.48
2023-06-09T13:36:07.938Z,40.07
2023-06-09T13:39:11.206Z,36.77
2023-06-09T13:42:24.612Z,38.36
2023-06-09T13:45:34.783Z,47.52
2023-06-09T13:48:42.166Z,49.11
2023-06-09T13:51:48.041Z,51.39
2023-06-09T13:54:51.209Z,53.85
2023-06-09T13:57:54.225Z,56.25
2023-06-09T14:05:10.798Z,63.61
2023-06-09T14:08:13.954Z,64.67
2023-06-09T14:11:22.929Z,64.30
2023-06-09T14:14:26.464Z,57.80
2023-06-09T15:28:32.081Z,87.16
2023-06-09T15:31:49.663Z,88.69
2023-06-09T15:34:53.153Z,87.24
2023-06-09T15:38:04.520Z,86.10
2023-06-09T15:41:10.962Z,85.20
2023-06-09T15:44:14.066Z,82.42
2023-06-09T15:47:17.400Z,84.22
2023-06-09T15:50:20.515Z,83.72
2023-06-09T15:53:23.757Z,85.40
2023-06-09T15:56:29.890Z,85.34
2023-06-09T15:59:33.465Z,85.63
2023-06-09T16:02:36.466Z,86.24
2023-06-09T16:05:40.959Z,83.08
2023-06-09T16:08:44.541Z,83.63
2023-06-09T16:11:47.713Z,85.47
2023-06-09T16:14:51.211Z,83.10
2023-06-09T16:17:54.276Z,81.29
2023-06-09T16:20:58.153Z,79.75
2023-06-09T16:24:01.176Z,78.88
2023-06-09T16:27:08.162Z,77.25
2023-06-09T16:30:11.839Z,76.59
2023-06-09T16:33:17.897Z,78.01
2023-06-09T16:36:21.581Z,78.26
2023-06-09T16:39:24.760Z,78.72
2023-06-09T16:42:27.748Z,79.55
2023-06-09T16:45:30.844Z,79.86
2023-06-09T16:48:35.552Z,79.40
2023-06-09T16:51:38.657Z,75.90
2023-06-09T16:54:41.696Z,71.80
2023-06-09T16:57:44.997Z,67.99
2023-06-09T17:00:48.049Z,63.08
2023-06-09T17:03:53.986Z,58.46
2023-06-09T17:06:57.502Z,55.25
2023-06-09T17:10:00.361Z,53.92
2023-06-09T17:13:03.648Z,50.86
2023-06-09T17:16:06.764Z,49.56
2023-06-09T17:19:12.940Z,49.83
2023-06-09T17:22:15.873Z,49.62
2023-06-09T17:25:19.278Z,49.33
2023-06-09T17:28:22.371Z,48.86
2023-06-09T17:31:25.392Z,50.34
2023-06-09T17:34:28.490Z,51.76
2023-06-09T17:37:32.185Z,52.68
2023-06-09T17:40:35.162Z,55.00
2023-06-09T17:43:38.202Z,58.56
2023-06-09T17:46:41.323Z,64.37
2023-06-09T17:49:44.486Z,69.13
2023-06-09T17:52:47.914Z,73.13
2023-06-09T17:55:51.218Z,76.75
2023-06-09T17:58:54.269Z,78.29
2023-06-09T18:01:57.555Z,83.21
2023-06-09T18:05:00.912Z,88.58
2023-06-09T18:08:03.994Z,89.70
2023-06-09T18:11:07.142Z,90.79
2023-06-09T18:14:10.299Z,94.32
2023-06-09T18:17:13.317Z,99.10
2023-06-09T18:20:16.529Z,100.00
2023-06-09T18:23:19.613Z,100.00
2023-06-09T18:26:22.512Z,100.00
2023-06-09T18:29:26.151Z,100.00
2023-06-09T18:32:32.161Z,100.00
2023-06-09T18:35:35.125Z,100.00
2023-06-09T18:38:38.028Z,100.00
2023-06-09T18:41:41.065Z,100.00
2023-06-09T18:44:44.089Z,100.00
2023-06-09T18:47:47.069Z,100.00
2023-06-09T18:50:49.975Z,100.00
2023-06-09T18:53:54.218Z,100.00
2023-06-09T18:56:57.157Z,100.00
2023-06-09T19:00:00.488Z,100.00
2023-06-09T19:03:04.402Z,100.00
2023-06-09T19:06:07.986Z,100.00
2023-06-09T19:09:11.435Z,100.00
2023-06-09T19:12:14.482Z,100.00
2023-06-09T19:15:17.756Z,100.00
2023-06-09T19:18:20.865Z,100.00
2023-06-09T19:21:23.865Z,100.00
2023-06-09T19:24:27.318Z,100.00
2023-06-09T19:27:30.216Z,100.00
2023-06-09T19:30:35.022Z,100.00
2023-06-09T19:33:38.215Z,100.00
2023-06-09T19:36:41.508Z,100.00
2023-06-09T19:39:44.556Z,100.00
2023-06-09T19:42:47.609Z,100.00
2023-06-09T19:45:50.629Z,100.00
2023-06-09T19:48:53.502Z,100.00
2023-06-09T19:51:56.479Z,100.00
2023-06-09T19:54:59.629Z,100.00
2023-06-09T19:58:04.403Z,100.00
2023-06-09T20:01:07.266Z,100.00
2023-06-09T20:04:10.327Z,100.00
2023-06-09T20:07:13.499Z,100.00
2023-06-09T20:10:16.817Z,100.00
2023-06-09T20:13:19.826Z,100.00
2023-06-09T20:16:23.772Z,100.00
2023-06-09T20:19:26.802Z,100.00
2023-06-09T20:22:29.890Z,100.00
2023-06-09T20:25:33.409Z,100.00
2023-06-09T20:28:36.555Z,100.00
2023-06-09T20:31:39.680Z,100.00
2023-06-09T20:34:42.978Z,100.00
2023-06-09T20:37:45.739Z,100.00
2023-06-09T20:40:48.537Z,100.00
2023-06-09T20:43:51.556Z,100.00
2023-06-09T20:46:54.538Z,100.00
2023-06-09T20:50:01.606Z,100.00
2023-06-09T20:53:04.534Z,100.00
2023-06-09T20:56:08.209Z,100.00
2023-06-09T20:59:11.868Z,100.00
2023-06-09T21:02:14.977Z,100.00
2023-06-09T21:05:18.129Z,100.00
2023-06-09T21:08:22.142Z,100.00
2023-06-09T21:11:25.790Z,100.00
2023-06-09T21:14:28.863Z,100.00
2023-06-09T21:17:31.747Z,100.00
2023-06-09T21:20:34.842Z,100.00
2023-06-09T21:23:38.449Z,100.00
2023-06-09T21:26:41.741Z,100.00
2023-06-09T21:29:44.733Z,100.00
2023-06-09T21:32:47.740Z,100.00
2023-06-09T21:35:50.553Z,100.00
2023-06-09T21:38:56.722Z,100.00
2023-06-09T21:41:59.635Z,100.00
2023-06-09T21:45:02.471Z,100.00
2023-06-09T21:48:05.481Z,100.00
2023-06-09T21:51:08.273Z,100.00
2023-06-09T21:54:11.263Z,100.00
2023-06-09T21:57:14.147Z,100.00
2023-06-09T22:00:17.922Z,100.00
2023-06-09T22:03:20.767Z,100.00
2023-06-09T22:06:23.732Z,100.00
2023-06-09T22:09:26.694Z,100.00
2023-06-09T22:12:39.526Z,100.00
2023-06-09T22:15:42.824Z,100.00
2023-06-09T22:18:47.607Z,100.00
2023-06-09T22:21:50.677Z,100.00
2023-06-09T22:24:53.455Z,100.00
2023-06-09T22:27:56.528Z,100.00
2023-06-09T22:30:59.418Z,100.00
2023-06-09T22:34:02.332Z,100.00
2023-06-09T22:37:05.424Z,100.00
2023-06-09T22:40:09.651Z,100.00
2023-06-09T22:43:12.520Z,100.00
2023-06-09T22:46:15.503Z,100.00
2023-06-09T22:49:22.536Z,100.00
2023-06-09T22:52:25.501Z,100.00
2023-06-09T22:55:28.515Z,100.00
2023-06-09T22:58:34.851Z,100.00
2023-06-09T23:01:37.935Z,100.00
2023-06-09T23:04:43.150Z,100.00
2023-06-09T23:07:45.910Z,100.00
2023-06-09T23:10:48.946Z,100.00
2023-06-09T23:13:51.844Z,100.00
2023-06-09T23:16:56.640Z,100.00
2023-06-09T23:20:01.481Z,100.00
2023-06-09T23:23:04.462Z,100.00
2023-06-09T23:26:07.526Z,100.00
2023-06-09T23:29:10.484Z,100.00
2023-06-09T23:32:13.893Z,100.00
2023-06-09T23:35:18.305Z,100.00
2023-06-09T23:38:21.932Z,100.00
2023-06-09T23:41:27.069Z,100.00
2023-06-09T23:44:29.944Z,100.00
2023-06-09T23:47:32.930Z,100.00
2023-06-09T23:50:36.281Z,100.00
2023-06-09T23:53:40.503Z,100.00
2023-06-09T23:56:45.853Z,100.00
2023-06-09T23:59:49.088Z,100.00
